Time;durP1;ratioP1;P1;durP2;ratioP2;P2;SDS_P1;SDS_P2;PMS_P1;PMS_P2;Temp;Humidity;BMP_temperature;BMP_pressure;BME280_temperature;BME280_humidity;BME280_pressure;Samples;Min_cycle;Max_cycle;Signal;HPM_P1;HPM_P2
2022/03/02 00:02:24;;;;;;;41.30;27.33;;;5.00;99.90;;;;;;6158192;23;20103;-79
2022/03/02 00:04:49;;;;;;;45.92;28.25;;;5.00;99.90;;;;;;6159418;23;20442;-79
2022/03/02 00:07:15;;;;;;;44.38;27.35;;;5.00;99.90;;;;;;6129404;23;20020;-78
2022/03/02 00:09:41;;;;;;;44.47;28.13;;;5.00;99.90;;;;;;6153339;23;20021;-81
2022/03/02 00:12:07;;;;;;;45.33;28.00;;;5.00;99.90;;;;;;6128980;23;20011;-81
2022/03/02 00:14:33;;;;;;;43.10;26.85;;;5.00;99.90;;;;;;6129117;23;20023;-79
2022/03/02 00:16:58;;;;;;;42.85;27.67;;;5.00;99.90;;;;;;6153984;23;20016;-78
2022/03/02 00:19:25;;;;;;;48.97;28.20;;;5.10;99.90;;;;;;6153873;23;20092;-78
2022/03/02 00:21:50;;;;;;;42.15;27.25;;;5.00;99.90;;;;;;6153910;23;20345;-78
2022/03/02 00:24:16;;;;;;;46.72;28.23;;;5.00;99.90;;;;;;6180450;23;20013;-80
2022/03/02 00:26:41;;;;;;;42.95;26.92;;;5.00;99.90;;;;;;6153926;23;20081;-78
2022/03/02 00:29:07;;;;;;;42.13;26.48;;;5.00;99.90;;;;;;6152167;23;20068;-79
2022/03/02 00:31:33;;;;;;;44.45;26.60;;;5.00;99.90;;;;;;6180067;23;20016;-81
2022/03/02 00:33:59;;;;;;;44.67;27.27;;;5.00;99.90;;;;;;6153866;23;20013;-83
2022/03/02 00:36:24;;;;;;;43.42;27.45;;;5.10;99.90;;;;;;6154523;23;20099;-79
2022/03/02 00:38:50;;;;;;;43.38;27.33;;;5.10;99.90;;;;;;6130181;23;20025;-81
2022/03/02 00:41:16;;;;;;;44.17;27.48;;;5.10;99.90;;;;;;6157037;23;20078;-80
2022/03/02 00:43:42;;;;;;;42.38;27.70;;;5.00;99.90;;;;;;6155948;23;20055;-79
2022/03/02 00:46:08;;;;;;;45.42;26.98;;;5.10;99.90;;;;;;6131040;23;20021;-79
2022/03/02 00:48:34;;;;;;;43.60;27.83;;;5.00;99.90;;;;;;6155995;23;20016;-79
2022/03/02 00:51:00;;;;;;;46.85;27.23;;;5.00;99.90;;;;;;6131414;23;20088;-79
2022/03/02 00:53:26;;;;;;;50.08;28.77;;;5.00;99.90;;;;;;6132320;23;20091;-78
2022/03/02 00:55:52;;;;;;;45.97;28.45;;;4.90;99.90;;;;;;6156833;23;20457;-77
2022/03/02 00:58:17;;;;;;;44.80;28.38;;;5.00;99.90;;;;;;6131907;23;20100;-79
2022/03/02 01:00:43;;;;;;;49.70;28.92;;;4.90;99.90;;;;;;6183157;23;20016;-80
2022/03/02 01:03:09;;;;;;;46.85;28.45;;;4.90;99.90;;;;;;6134296;23;20063;-80
2022/03/02 01:05:34;;;;;;;48.95;29.85;;;4.90;99.90;;;;;;6159819;23;20028;-79
2022/03/02 01:08:00;;;;;;;51.38;28.48;;;4.90;99.90;;;;;;6160178;23;20167;-78
2022/03/02 01:10:26;;;;;;;48.20;29.42;;;4.90;99.90;;;;;;6185469;23;20020;-80
2022/03/02 01:12:51;;;;;;;46.33;27.13;;;4.90;99.90;;;;;;6185665;23;20027;-79
2022/03/02 01:15:17;;;;;;;47.72;29.13;;;4.80;99.90;;;;;;6184448;23;20100;-78
2022/03/02 01:17:43;;;;;;;50.47;28.27;;;4.90;99.90;;;;;;6186167;23;20021;-78
2022/03/02 01:20:10;;;;;;;48.38;29.10;;;4.80;99.90;;;;;;6160751;23;20024;-77
2022/03/02 01:22:36;;;;;;;49.40;29.55;;;4.90;99.90;;;;;;6185548;23;20008;-78
2022/03/02 01:25:04;;;;;;;47.53;28.33;;;4.90;99.90;;;;;;6184366;23;20425;-78
2022/03/02 01:27:30;;;;;;;52.42;29.98;;;4.80;99.90;;;;;;6160425;23;20048;-78
2022/03/02 01:29:56;;;;;;;49.30;29.45;;;4.80;99.90;;;;;;6184199;23;20066;-79
2022/03/02 01:32:22;;;;;;;50.00;30.30;;;4.80;99.90;;;;;;6185303;23;20040;-78
2022/03/02 01:34:48;;;;;;;51.33;30.95;;;4.80;99.90;;;;;;6184551;23;20047;-78
2022/03/02 01:37:14;;;;;;;53.67;31.50;;;4.70;99.90;;;;;;6212899;23;20028;-80
2022/03/02 01:39:40;;;;;;;47.25;29.35;;;4.70;99.90;;;;;;6185864;23;20071;-79
2022/03/02 01:42:06;;;;;;;54.60;31.48;;;4.70;99.90;;;;;;6184492;23;20017;-79
2022/03/02 01:44:33;;;;;;;50.70;30.42;;;4.70;99.90;;;;;;6184477;23;20092;-78
2022/03/02 01:46:59;;;;;;;51.13;31.70;;;4.70;99.90;;;;;;6161712;23;20075;-79
2022/03/02 01:49:24;;;;;;;51.90;30.83;;;4.70;99.90;;;;;;6185621;23;20126;-81
2022/03/02 01:51:50;;;;;;;50.13;30.90;;;4.70;99.90;;;;;;6181356;23;20084;-79
2022/03/02 01:54:16;;;;;;;51.47;31.38;;;4.70;99.90;;;;;;6183451;23;20341;-80
2022/03/02 01:56:41;;;;;;;52.05;31.17;;;4.60;99.90;;;;;;6160330;23;20017;-81
2022/03/02 01:59:07;;;;;;;50.85;30.35;;;4.60;99.90;;;;;;6184351;23;20634;-80
2022/03/02 02:01:34;;;;;;;52.63;31.23;;;4.50;99.90;;;;;;6185679;23;20132;-79
2022/03/02 02:04:00;;;;;;;51.97;32.17;;;4.50;99.90;;;;;;6183858;23;20048;-81
2022/03/02 02:06:26;;;;;;;52.78;30.48;;;4.50;99.90;;;;;;6160339;23;20021;-79
2022/03/02 02:08:52;;;;;;;51.65;31.27;;;4.50;99.90;;;;;;6185591;23;20070;-81
2022/03/02 02:11:18;;;;;;;50.53;31.38;;;4.50;99.90;;;;;;6186104;23;20016;-78
2022/03/02 02:13:44;;;;;;;49.92;30.10;;;4.40;99.90;;;;;;6185389;23;20016;-80
2022/03/02 02:16:11;;;;;;;51.30;31.27;;;4.50;99.90;;;;;;6184077;23;20023;-79
2022/03/02 02:18:37;;;;;;;53.35;31.10;;;4.40;99.90;;;;;;6160512;23;20059;-80
2022/03/02 02:21:08;;;;;;;62.22;32.67;;;4.30;99.90;;;;;;6212658;23;20416;-79
2022/03/02 02:23:38;;;;;;;51.78;30.67;;;4.30;99.90;;;;;;6173601;23;20012;-78
2022/03/02 02:26:05;;;;;;;57.22;32.28;;;4.30;99.90;;;;;;6186175;23;20044;-81
2022/03/02 02:28:31;;;;;;;51.97;31.10;;;4.30;99.90;;;;;;6210860;23;20012;-79
2022/03/02 02:30:58;;;;;;;52.72;29.30;;;4.30;99.90;;;;;;6159684;23;20016;-79
2022/03/02 02:33:26;;;;;;;55.63;32.08;;;4.30;99.90;;;;;;6159805;23;20024;-78
2022/03/02 02:35:52;;;;;;;58.72;34.03;;;4.40;99.90;;;;;;6183548;23;20013;-79
2022/03/02 02:38:21;;;;;;;55.83;32.67;;;4.30;99.90;;;;;;6160220;23;20012;-79
2022/03/02 02:40:48;;;;;;;60.40;35.30;;;4.20;99.90;;;;;;6186225;23;20013;-78
2022/03/02 02:43:15;;;;;;;56.97;31.85;;;4.10;99.90;;;;;;6158826;23;20013;-79
2022/03/02 02:45:41;;;;;;;58.35;33.65;;;4.10;99.90;;;;;;6183716;23;20020;-80
2022/03/02 02:48:07;;;;;;;61.10;35.35;;;4.00;99.90;;;;;;6160303;23;20086;-80
2022/03/02 02:50:33;;;;;;;61.90;34.95;;;4.10;99.90;;;;;;6185260;23;20016;-79
2022/03/02 02:53:02;;;;;;;62.10;35.33;;;3.90;99.90;;;;;;6183964;23;20013;-79
2022/03/02 02:55:29;;;;;;;63.65;36.80;;;3.80;99.90;;;;;;6159380;23;20799;-78
2022/03/02 02:57:56;;;;;;;64.63;37.10;;;3.70;99.90;;;;;;6159573;23;20012;-81
2022/03/02 03:00:25;;;;;;;65.25;37.60;;;3.70;99.90;;;;;;6183211;23;20333;-79
2022/03/02 03:02:52;;;;;;;68.30;37.45;;;3.70;99.90;;;;;;6185716;23;20090;-77
2022/03/02 03:05:22;;;;;;;66.63;37.83;;;3.70;99.90;;;;;;6131676;23;20021;-77
2022/03/02 03:07:49;;;;;;;69.78;36.85;;;3.60;99.90;;;;;;6155698;23;20013;-80
2022/03/02 03:10:17;;;;;;;72.97;38.53;;;3.50;99.90;;;;;;6154446;23;20016;-77
2022/03/02 03:12:44;;;;;;;65.13;37.50;;;3.50;99.90;;;;;;6154800;23;20323;-77
2022/03/02 03:15:11;;;;;;;70.88;38.13;;;3.40;99.90;;;;;;6130074;23;20021;-81
2022/03/02 03:17:38;;;;;;;71.97;37.15;;;3.40;99.90;;;;;;6131218;23;20346;-79
2022/03/02 03:20:06;;;;;;;68.40;36.65;;;3.30;99.90;;;;;;6154699;23;20505;-80
2022/03/02 03:22:31;;;;;;;70.47;36.53;;;3.40;99.90;;;;;;6155396;23;20064;-80
2022/03/02 03:24:57;;;;;;;67.65;36.42;;;3.30;99.90;;;;;;6130038;23;20021;-77
2022/03/02 03:27:23;;;;;;;68.05;34.95;;;3.30;99.90;;;;;;6155482;23;20508;-80
2022/03/02 03:29:48;;;;;;;68.68;38.28;;;3.40;99.90;;;;;;6129391;23;20017;-78
2022/03/02 03:32:14;;;;;;;64.72;35.70;;;3.40;99.90;;;;;;6129490;23;20024;-80
2022/03/02 03:34:40;;;;;;;65.10;36.30;;;3.30;99.90;;;;;;6154505;23;20063;-78
2022/03/02 03:37:06;;;;;;;70.53;36.53;;;3.30;99.90;;;;;;6154296;23;20033;-80
2022/03/02 03:39:31;;;;;;;67.40;37.80;;;3.20;99.90;;;;;;6154810;23;20052;-79
2022/03/02 03:41:57;;;;;;;67.72;37.85;;;3.20;99.90;;;;;;6131049;23;20017;-81
2022/03/02 03:44:24;;;;;;;62.70;36.03;;;3.20;99.90;;;;;;6154448;23;20406;-79
2022/03/02 03:46:50;;;;;;;68.15;37.65;;;3.00;99.90;;;;;;6155830;23;20016;-78
2022/03/02 03:49:16;;;;;;;69.18;37.75;;;3.10;99.90;;;;;;6131415;23;20020;-78
2022/03/02 03:51:42;;;;;;;72.55;38.35;;;3.00;99.90;;;;;;6154881;23;20071;-79
2022/03/02 03:54:08;;;;;;;69.60;37.05;;;3.00;99.90;;;;;;6130331;23;20092;-79
2022/03/02 03:56:34;;;;;;;66.72;37.67;;;2.90;99.90;;;;;;6156141;23;20100;-80
2022/03/02 03:59:00;;;;;;;71.40;37.70;;;2.90;99.90;;;;;;6154426;23;20103;-78
2022/03/02 04:01:27;;;;;;;61.92;35.67;;;2.90;99.90;;;;;;6154545;23;20088;-80
2022/03/02 04:03:53;;;;;;;66.55;35.63;;;2.80;99.90;;;;;;6128567;23;20017;-80
2022/03/02 04:06:18;;;;;;;67.43;36.67;;;2.80;99.90;;;;;;6154212;23;20858;-80
2022/03/02 04:08:44;;;;;;;64.63;34.90;;;2.80;99.90;;;;;;6128829;23;20017;-81
2022/03/02 04:11:10;;;;;;;60.83;35.55;;;2.70;99.90;;;;;;6130004;23;20059;-79
2022/03/02 04:13:35;;;;;;;61.22;32.33;;;2.70;99.90;;;;;;6154299;23;20059;-80
2022/03/02 04:16:02;;;;;;;63.67;35.78;;;2.80;99.90;;;;;;6155929;23;20024;-81
2022/03/02 04:18:27;;;;;;;63.80;36.28;;;2.70;99.90;;;;;;6131124;23;20095;-78
2022/03/02 04:20:53;;;;;;;63.75;35.30;;;2.80;99.90;;;;;;6131938;23;20449;-79
2022/03/02 04:23:19;;;;;;;63.83;35.28;;;2.70;99.90;;;;;;6156405;23;20048;-81
2022/03/02 04:25:45;;;;;;;62.58;35.47;;;2.70;99.90;;;;;;6156717;23;20047;-78
2022/03/02 04:28:11;;;;;;;62.67;36.03;;;2.60;99.90;;;;;;6130901;23;20509;-79
2022/03/02 04:30:37;;;;;;;64.68;36.88;;;2.60;99.90;;;;;;6107350;23;20092;-77
2022/03/02 04:33:03;;;;;;;61.38;36.58;;;2.60;99.90;;;;;;6131108;23;20506;-79
2022/03/02 04:35:29;;;;;;;64.30;36.55;;;2.60;99.90;;;;;;6155597;23;20089;-80
2022/03/02 04:37:55;;;;;;;64.13;36.22;;;2.60;99.90;;;;;;6156593;23;20013;-77
2022/03/02 04:40:20;;;;;;;65.18;36.08;;;2.90;99.90;;;;;;6155955;23;20122;-81
2022/03/02 04:42:46;;;;;;;71.68;36.70;;;2.50;99.90;;;;;;6156518;23;20381;-78
2022/03/02 04:45:13;;;;;;;63.15;35.78;;;2.50;99.90;;;;;;6130093;23;20017;-79
2022/03/02 04:47:39;;;;;;;65.07;36.10;;;2.40;99.90;;;;;;6133125;23;20020;-78
2022/03/02 04:50:06;;;;;;;65.72;37.13;;;2.40;99.90;;;;;;6131699;23;20009;-81
2022/03/02 04:52:32;;;;;;;63.90;36.35;;;2.30;99.90;;;;;;6155449;23;20017;-79
2022/03/02 04:55:06;;;;;;;67.40;37.50;;;2.40;99.90;;;;;;6130833;23;20121;-79
2022/03/02 04:57:40;;;;;;;68.00;35.95;;;2.30;99.90;;;;;;6132157;23;20016;-80
2022/03/02 05:00:10;;;;;;;63.80;37.63;;;2.30;99.90;;;;;;6155273;23;20437;-81
2022/03/02 05:02:37;;;;;;;66.90;36.00;;;2.20;99.90;;;;;;6131357;23;20704;-80
2022/03/02 05:05:05;;;;;;;62.72;36.67;;;2.20;99.90;;;;;;6154274;23;20021;-79
2022/03/02 05:07:30;;;;;;;73.38;39.28;;;2.20;99.90;;;;;;6210352;23;20029;-78
2022/03/02 05:09:56;;;;;;;66.60;35.60;;;2.10;99.90;;;;;;6182995;23;20030;-78
2022/03/02 05:12:22;;;;;;;69.97;37.00;;;2.10;99.90;;;;;;6183329;23;20012;-81
2022/03/02 05:14:49;;;;;;;66.63;37.88;;;2.10;99.90;;;;;;6183192;23;20012;-79
2022/03/02 05:17:15;;;;;;;67.65;38.10;;;2.00;99.90;;;;;;6160910;23;20096;-77
2022/03/02 05:19:40;;;;;;;66.63;37.75;;;2.00;99.90;;;;;;6185094;23;20032;-78
2022/03/02 05:22:06;;;;;;;68.28;36.47;;;2.00;99.90;;;;;;6161337;23;20036;-77
2022/03/02 05:24:32;;;;;;;64.18;36.78;;;2.00;99.90;;;;;;6184712;23;20166;-79
2022/03/02 05:26:58;;;;;;;62.65;36.75;;;1.90;99.90;;;;;;6185992;23;20017;-78
2022/03/02 05:29:23;;;;;;;64.90;36.70;;;1.90;99.90;;;;;;6184562;23;20445;-80
2022/03/02 05:31:49;;;;;;;68.40;36.58;;;1.80;99.90;;;;;;6186402;23;20019;-80
2022/03/02 05:34:15;;;;;;;63.33;36.25;;;1.80;99.90;;;;;;6159711;23;20016;-77
2022/03/02 05:36:41;;;;;;;65.60;37.30;;;1.80;99.90;;;;;;6186249;23;20059;-79
2022/03/02 05:39:06;;;;;;;63.17;36.67;;;1.80;99.90;;;;;;6161522;23;20016;-78
2022/03/02 05:41:33;;;;;;;67.35;37.35;;;1.70;99.90;;;;;;6159568;23;20431;-77
2022/03/02 05:44:00;;;;;;;66.90;37.03;;;1.70;99.90;;;;;;6160008;23;20067;-79
2022/03/02 05:46:27;;;;;;;68.05;36.78;;;1.60;99.90;;;;;;6185691;23;20071;-78
2022/03/02 05:48:53;;;;;;;64.45;35.85;;;1.70;99.90;;;;;;6186119;23;20009;-79
2022/03/02 05:51:19;;;;;;;68.47;37.30;;;1.60;99.90;;;;;;6161223;23;20012;-77
2022/03/02 05:53:45;;;;;;;69.72;38.00;;;1.60;99.90;;;;;;6160925;23;20009;-79
2022/03/02 05:56:11;;;;;;;63.22;35.75;;;1.60;99.90;;;;;;6186388;23;20125;-80
2022/03/02 05:58:37;;;;;;;66.55;36.78;;;1.60;99.90;;;;;;6184897;23;20016;-80
2022/03/02 06:01:03;;;;;;;67.93;38.17;;;1.50;99.90;;;;;;6184811;23;20313;-79
2022/03/02 06:03:31;;;;;;;67.53;37.90;;;1.50;99.90;;;;;;6172458;23;20012;-81
2022/03/02 06:05:57;;;;;;;68.53;37.20;;;1.50;99.90;;;;;;6184597;23;20022;-80
2022/03/02 06:08:23;;;;;;;66.70;37.25;;;1.40;99.90;;;;;;6184235;23;20135;-79
2022/03/02 06:10:49;;;;;;;64.90;37.92;;;1.50;99.90;;;;;;6160041;23;20074;-81
2022/03/02 06:13:15;;;;;;;65.20;37.20;;;1.50;99.90;;;;;;6157774;23;20386;-77
2022/03/02 06:15:42;;;;;;;66.18;36.47;;;1.50;99.90;;;;;;6184169;23;20106;-80
2022/03/02 06:18:08;;;;;;;68.75;36.22;;;1.50;99.90;;;;;;6184384;23;20322;-79
2022/03/02 06:20:34;;;;;;;65.20;37.67;;;1.50;99.90;;;;;;6185609;23;20016;-80
2022/03/02 06:23:00;;;;;;;71.50;37.78;;;1.40;99.90;;;;;;6184156;23;20024;-80
2022/03/02 06:25:26;;;;;;;66.95;36.92;;;1.50;99.90;;;;;;6184722;23;20038;-78
2022/03/02 06:27:52;;;;;;;65.45;36.22;;;1.50;99.90;;;;;;6186680;23;20031;-77
2022/03/02 06:30:18;;;;;;;72.72;37.03;;;1.50;99.90;;;;;;6160035;23;20023;-77
2022/03/02 06:32:43;;;;;;;65.00;35.88;;;1.50;99.90;;;;;;6160060;23;20009;-81
2022/03/02 06:35:10;;;;;;;64.82;35.65;;;1.60;99.90;;;;;;6185508;23;20017;-78
2022/03/02 06:37:37;;;;;;;69.68;38.30;;;1.50;99.90;;;;;;6157971;23;20023;-81
2022/03/02 06:40:06;;;;;;;72.93;37.30;;;1.80;99.90;;;;;;6160102;23;20027;-77
2022/03/02 06:43:02;;;;;;;71.50;37.85;;;1.60;99.90;;;;;;6184901;23;20020;-79
2022/03/02 06:45:49;;;;;;;66.20;36.20;;;1.60;99.90;;;;;;6184846;23;20107;-78
2022/03/02 06:48:21;;;;;;;70.30;38.53;;;1.60;99.90;;;;;;6184341;23;20310;-79
2022/03/02 06:50:50;;;;;;;69.03;38.28;;;1.60;99.90;;;;;;6184450;23;20016;-78
2022/03/02 06:53:16;;;;;;;68.47;36.20;;;1.70;99.90;;;;;;6210632;23;20044;-78
2022/03/02 06:55:44;;;;;;;68.63;35.75;;;1.60;99.90;;;;;;6184767;23;20024;-79
2022/03/02 06:58:12;;;;;;;70.93;37.88;;;1.80;99.90;;;;;;6160522;23;20604;-78
2022/03/02 07:00:39;;;;;;;51.33;28.45;;;1.70;99.90;;;;;;6211616;23;20068;-80
2022/03/02 07:03:10;;;;;;;68.25;35.88;;;2.70;99.90;;;;;;6184743;23;20013;-79
2022/03/02 07:05:37;;;;;;;62.17;35.20;;;2.90;99.90;;;;;;6184632;23;20017;-79
2022/03/02 07:08:04;;;;;;;59.05;33.83;;;2.70;99.90;;;;;;6184934;23;20421;-81
2022/03/02 07:10:35;;;;;;;61.20;35.45;;;2.50;99.90;;;;;;6185741;23;20013;-78
2022/03/02 07:13:05;;;;;;;62.08;35.60;;;2.40;99.90;;;;;;6158854;23;20035;-77
2022/03/02 07:15:31;;;;;;;66.20;36.80;;;2.30;99.90;;;;;;6172645;23;20031;-77
2022/03/02 07:18:04;;;;;;;65.95;36.80;;;2.20;99.90;;;;;;6184442;23;20016;-77
2022/03/02 07:20:30;;;;;;;65.75;37.33;;;2.20;99.90;;;;;;6185084;23;20553;-77
2022/03/02 07:22:57;;;;;;;65.47;36.85;;;2.10;99.90;;;;;;6184489;23;20324;-77
2022/03/02 07:25:38;;;;;;;65.22;34.92;;;2.50;99.90;;;;;;6184863;23;20130;-77
2022/03/02 07:28:04;;;;;;;64.00;36.45;;;2.20;99.90;;;;;;6184683;23;20321;-78
2022/03/02 07:30:30;;;;;;;66.90;37.10;;;2.20;99.90;;;;;;6185347;23;20067;-78
2022/03/02 07:33:01;;;;;;;65.15;37.33;;;2.20;99.90;;;;;;6159127;23;20020;-78
2022/03/02 07:35:31;;;;;;;68.35;37.15;;;2.30;99.90;;;;;;6183955;23;20086;-79
2022/03/02 07:37:57;;;;;;;61.67;36.53;;;2.30;99.90;;;;;;6184181;23;20016;-78
2022/03/02 07:40:23;;;;;;;61.13;36.35;;;2.30;99.90;;;;;;6185083;23;20031;-78
2022/03/02 07:42:49;;;;;;;69.35;37.65;;;2.40;99.90;;;;;;6183388;23;20024;-79
2022/03/02 07:45:16;;;;;;;66.68;37.13;;;2.40;99.90;;;;;;6182437;23;20047;-79
2022/03/02 07:47:42;;;;;;;66.82;36.78;;;2.50;99.90;;;;;;6157719;23;20074;-81
2022/03/02 07:50:09;;;;;;;72.70;38.15;;;2.50;99.90;;;;;;6158226;23;20075;-79
2022/03/02 07:52:37;;;;;;;66.43;36.47;;;2.50;99.90;;;;;;6158933;23;20013;-80
2022/03/02 07:55:10;;;;;;;65.03;37.40;;;2.60;99.90;;;;;;6158624;23;20020;-77
2022/03/02 07:57:39;;;;;;;66.60;36.20;;;2.70;99.90;;;;;;6183560;23;20390;-77
2022/03/02 08:00:06;;;;;;;63.40;35.92;;;2.80;99.90;;;;;;6158208;23;20453;-81
2022/03/02 08:02:32;;;;;;;68.00;36.78;;;2.90;99.90;;;;;;6159284;23;20026;-76
2022/03/02 08:04:58;;;;;;;62.97;35.58;;;2.90;99.90;;;;;;6184775;23;20106;-79
2022/03/02 08:07:24;;;;;;;63.50;36.60;;;3.00;99.90;;;;;;6184321;23;20020;-79
2022/03/02 08:09:53;;;;;;;68.28;36.72;;;3.30;99.90;;;;;;6185666;23;20015;-81
2022/03/02 08:12:26;;;;;;;63.80;36.90;;;3.10;99.90;;;;;;6160323;23;20088;-82
2022/03/02 08:14:52;;;;;;;66.10;36.42;;;3.30;99.90;;;;;;6185095;23;20082;-80
2022/03/02 08:17:19;;;;;;;60.13;33.80;;;3.80;99.90;;;;;;6158327;23;20476;-79
2022/03/02 08:19:46;;;;;;;66.07;37.00;;;3.30;99.90;;;;;;6160013;23;20455;-81
2022/03/02 08:22:31;;;;;;;64.85;35.55;;;3.30;99.90;;;;;;6161213;23;20325;-79
2022/03/02 08:25:10;;;;;;;61.85;35.35;;;3.50;99.90;;;;;;6188153;23;20013;-81
2022/03/02 08:27:39;;;;;;;59.05;32.03;;;3.50;99.90;;;;;;6186032;23;20414;-80
2022/03/02 08:30:06;;;;;;;62.80;34.45;;;3.60;99.90;;;;;;6186136;23;20012;-80
2022/03/02 08:32:39;;;;;;;58.25;34.63;;;3.60;99.90;;;;;;6186016;23;20075;-79
2022/03/02 08:35:06;;;;;;;58.70;33.10;;;4.00;99.90;;;;;;6186536;23;20012;-79
2022/03/02 08:37:32;;;;;;;59.40;34.58;;;3.70;99.90;;;;;;6161623;23;20385;-80
2022/03/02 08:39:59;;;;;;;60.35;34.15;;;3.70;99.90;;;;;;6186389;23;20013;-81
2022/03/02 08:42:25;;;;;;;57.03;31.70;;;4.00;99.90;;;;;;6160841;23;20019;-82
2022/03/02 08:44:51;;;;;;;58.95;34.45;;;3.80;99.90;;;;;;6186311;23;20094;-81
2022/03/02 08:47:17;;;;;;;59.35;33.78;;;3.90;99.90;;;;;;6186735;23;20405;-78
2022/03/02 08:49:42;;;;;;;52.70;27.80;;;4.00;99.90;;;;;;6186763;23;20087;-81
2022/03/02 08:52:09;;;;;;;58.45;33.00;;;3.90;99.90;;;;;;6186225;23;20060;-79
2022/03/02 08:54:48;;;;;;;53.78;31.20;;;4.40;99.90;;;;;;6160749;23;20013;-80
2022/03/02 08:57:18;;;;;;;55.42;32.25;;;4.10;99.90;;;;;;6161540;23;20021;-79
2022/03/02 08:59:45;;;;;;;56.80;30.52;;;4.20;99.90;;;;;;6159431;23;20627;-80
2022/03/02 09:02:17;;;;;;;55.92;29.20;;;4.20;99.90;;;;;;6186458;23;20314;-76
2022/03/02 09:04:43;;;;;;;55.30;30.98;;;4.30;99.90;;;;;;6141777;23;20023;-80
2022/03/02 09:07:09;;;;;;;58.90;31.15;;;4.30;99.90;;;;;;6156566;23;20083;-80
2022/03/02 09:09:34;;;;;;;53.47;30.85;;;4.40;99.90;;;;;;6158263;23;20013;-77
2022/03/02 09:12:00;;;;;;;51.53;29.13;;;4.40;99.90;;;;;;6157408;23;20016;-80
2022/03/02 09:14:26;;;;;;;54.03;30.15;;;4.50;99.90;;;;;;6156001;23;20017;-78
2022/03/02 09:16:52;;;;;;;49.83;29.75;;;4.50;99.90;;;;;;6132525;23;20013;-79
2022/03/02 09:19:17;;;;;;;49.67;28.48;;;4.60;99.90;;;;;;6130761;23;20326;-80
2022/03/02 09:21:45;;;;;;;53.85;30.02;;;4.60;99.90;;;;;;6156954;23;20020;-80
2022/03/02 09:24:11;;;;;;;57.63;31.20;;;4.60;99.90;;;;;;6155537;23;20021;-80
2022/03/02 09:26:39;;;;;;;53.17;30.77;;;4.60;99.90;;;;;;6131642;23;20013;-80
2022/03/02 09:29:06;;;;;;;52.35;29.42;;;4.70;99.90;;;;;;6155447;23;20012;-78
2022/03/02 09:31:34;;;;;;;48.67;29.35;;;4.80;99.90;;;;;;6156713;23;20017;-78
2022/03/02 09:34:04;;;;;;;55.13;31.65;;;4.90;99.90;;;;;;6156465;23;20287;-83
2022/03/02 09:36:35;;;;;;;48.38;27.75;;;4.90;99.90;;;;;;6158962;23;20047;-80
2022/03/02 09:39:09;;;;;;;55.22;28.23;;;5.20;99.90;;;;;;6133348;23;20318;-78
2022/03/02 09:41:49;;;;;;;56.15;29.73;;;5.20;99.90;;;;;;6156967;23;20496;-77
2022/03/02 09:44:19;;;;;;;50.85;29.27;;;5.30;99.90;;;;;;6156765;23;20120;-79
2022/03/02 09:46:51;;;;;;;48.33;27.25;;;5.20;99.90;;;;;;6157697;23;20016;-79
2022/03/02 09:49:21;;;;;;;48.05;28.67;;;5.40;99.90;;;;;;6133210;23;20031;-78
2022/03/02 09:52:12;;;;;;;58.10;28.70;;;5.30;99.90;;;;;;6133022;23;20020;-77
2022/03/02 09:54:39;;;;;;;52.70;30.30;;;5.40;99.90;;;;;;6157198;23;20036;-74
2022/03/02 09:57:06;;;;;;;42.00;24.60;;;5.40;99.90;;;;;;6157407;23;20025;-75
2022/03/02 09:59:35;;;;;;;52.80;29.63;;;5.50;99.90;;;;;;6155917;23;20081;-79
2022/03/02 10:02:07;;;;;;;48.80;25.50;;;5.60;99.90;;;;;;6157311;23;20100;-81
2022/03/02 10:04:35;;;;;;;45.75;27.55;;;5.80;99.90;;;;;;6150156;23;20031;-80
2022/03/02 10:07:26;;;;;;;46.35;27.00;;;5.80;99.90;;;;;;6161133;23;20024;-80
2022/03/02 10:10:07;;;;;;;49.08;28.25;;;5.90;99.90;;;;;;6180324;23;20032;-81
2022/03/02 10:12:34;;;;;;;45.92;27.20;;;6.00;99.90;;;;;;6162007;23;20044;-83
2022/03/02 10:15:00;;;;;;;45.42;28.35;;;6.10;99.90;;;;;;6185062;23;20099;-79
2022/03/02 10:17:35;;;;;;;45.80;26.45;;;6.20;99.90;;;;;;6187768;23;20051;-82
2022/03/02 10:20:05;;;;;;;;;;;6.10;99.90;;;;;;6187484;23;20023;-83
2022/03/02 10:22:47;;;;;;;47.83;25.35;;;6.30;99.90;;;;;;6186542;23;20184;-79
2022/03/02 10:25:16;;;;;;;47.88;27.30;;;7.00;99.90;;;;;;6187262;23;20016;-81
2022/03/02 10:28:04;;;;;;;47.15;27.42;;;7.00;99.90;;;;;;6185928;23;20051;-80
2022/03/02 10:30:40;;;;;;;45.45;25.70;;;7.00;99.90;;;;;;6185260;23;20099;-76
2022/03/02 10:33:24;;;;;;;49.30;27.88;;;7.00;99.90;;;;;;6186021;23;20028;-79
2022/03/02 10:36:07;;;;;;;47.70;27.60;;;6.90;99.90;;;;;;6185609;23;20027;-80
2022/03/02 10:38:39;;;;;;;48.05;29.50;;;7.00;99.90;;;;;;6161088;23;20017;-81
2022/03/02 10:41:08;;;;;;;45.30;27.38;;;7.30;99.90;;;;;;6187278;23;20019;-81
2022/03/02 10:43:54;;;;;;;45.28;28.58;;;7.40;99.90;;;;;;6184801;23;20043;-81
2022/03/02 10:46:23;;;;;;;42.97;27.33;;;7.60;99.90;;;;;;6187007;23;20016;-83
2022/03/02 10:49:03;;;;;;;41.95;25.63;;;7.60;99.90;;;;;;6186968;23;20091;-82
2022/03/02 10:51:31;;;;;;;42.58;26.40;;;7.80;99.90;;;;;;6186808;23;20009;-83
2022/03/02 10:54:00;;;;;;;37.30;26.35;;;7.90;99.90;;;;;;6186595;23;20016;-82
2022/03/02 10:56:27;;;;;;;41.22;27.52;;;8.00;99.90;;;;;;6149629;23;20493;-84
2022/03/02 10:58:54;;;;;;;47.10;28.02;;;8.20;99.90;;;;;;6161985;23;20016;-83
2022/03/02 11:01:21;;;;;;;41.15;27.90;;;8.30;99.90;;;;;;6187350;23;20008;-83
2022/03/02 11:03:47;;;;;;;37.40;24.30;;;8.40;99.90;;;;;;6186314;23;20025;-82
2022/03/02 11:06:14;;;;;;;38.88;25.33;;;8.60;99.90;;;;;;6137450;23;20012;-80
2022/03/02 11:08:42;;;;;;;36.35;24.60;;;8.60;99.90;;;;;;6188252;23;20012;-82
2022/03/02 11:11:10;;;;;;;40.38;25.60;;;8.60;99.90;;;;;;6160260;23;20020;-82
2022/03/02 11:13:37;;;;;;;39.35;24.95;;;8.70;99.90;;;;;;6185347;23;20298;-83
2022/03/02 11:16:04;;;;;;;37.67;25.17;;;8.80;99.90;;;;;;6185444;23;20425;-83
2022/03/02 11:18:39;;;;;;;34.47;24.08;;;9.10;99.90;;;;;;6186442;23;20016;-82
2022/03/02 11:21:10;;;;;;;38.97;25.30;;;9.30;99.90;;;;;;6186772;23;20023;-83
2022/03/02 11:23:45;;;;;;;38.42;25.05;;;9.40;99.90;;;;;;6186059;23;20012;-81
2022/03/02 11:26:14;;;;;;;34.97;23.02;;;9.50;99.90;;;;;;6186224;23;20074;-81
2022/03/02 11:28:49;;;;;;;34.03;22.13;;;9.60;99.90;;;;;;6159573;23;20016;-82
2022/03/02 11:31:21;;;;;;;33.47;22.20;;;9.60;99.90;;;;;;6160224;23;20396;-82
2022/03/02 11:33:50;;;;;;;32.70;22.08;;;9.70;99.90;;;;;;6159232;23;20012;-83
2022/03/02 11:36:18;;;;;;;31.98;21.95;;;9.80;99.90;;;;;;6161975;23;20009;-82
2022/03/02 11:38:50;;;;;;;30.98;21.52;;;9.80;99.90;;;;;;6161034;23;20043;-82
2022/03/02 11:41:16;;;;;;;31.92;22.13;;;9.70;99.90;;;;;;6186278;23;20390;-82
2022/03/02 11:43:42;;;;;;;33.35;22.90;;;9.80;99.90;;;;;;6185055;23;20052;-82
2022/03/02 11:46:10;;;;;;;31.60;22.52;;;10.10;99.90;;;;;;6162079;23;20020;-82
2022/03/02 11:48:39;;;;;;;32.15;22.50;;;10.10;99.90;;;;;;6162342;23;20012;-82
2022/03/02 11:51:14;;;;;;;32.03;22.55;;;10.20;99.90;;;;;;6187780;23;20338;-83
2022/03/02 11:53:42;;;;;;;31.10;22.75;;;9.90;99.90;;;;;;6162813;23;20012;-82
2022/03/02 11:56:10;;;;;;;36.25;22.63;;;9.90;99.90;;;;;;6186221;23;20047;-81
2022/03/02 11:58:56;;;;;;;29.92;21.67;;;10.10;99.90;;;;;;6161066;23;20115;-81
2022/03/02 12:09:43;;;;;;;35.58;20.70;;;10.70;99.90;;;;;;6282470;22;20041;-87
2022/03/02 12:12:20;;;;;;;19.23;11.55;;;10.80;99.90;;;;;;6264676;22;20439;-79
2022/03/02 12:15:05;;;;;;;25.63;18.52;;;12.00;99.90;;;;;;6244377;22;20209;-78
2022/03/02 12:17:33;;;;;;;23.98;17.52;;;12.30;99.90;;;;;;6237979;22;20015;-78
2022/03/02 12:20:08;;;;;;;25.10;17.40;;;12.30;99.90;;;;;;6250770;22;20015;-85
2022/03/02 12:26:18;;;;;;;28.88;20.88;;;12.30;99.90;;;;;;6305230;22;20082;-84
2022/03/02 12:28:55;;;;;;;27.17;19.70;;;12.10;99.90;;;;;;6271502;22;20084;-84
2022/03/02 12:31:31;;;;;;;26.52;19.80;;;11.90;99.90;;;;;;6250847;22;20019;-82
2022/03/02 12:34:14;;;;;;;29.45;20.08;;;12.10;99.90;;;;;;6306692;22;20407;-81
2022/03/02 12:36:41;;;;;;;29.67;21.50;;;12.30;99.90;;;;;;6279933;22;20046;-83
2022/03/02 12:39:07;;;;;;;31.70;21.27;;;12.30;99.90;;;;;;6228780;22;20041;-82
2022/03/02 12:41:33;;;;;;;29.77;19.85;;;12.10;99.90;;;;;;6274528;22;20081;-83
2022/03/02 12:44:00;;;;;;;26.63;20.65;;;11.90;99.90;;;;;;6273009;22;20015;-84
2022/03/02 12:46:27;;;;;;;26.60;20.17;;;11.60;99.90;;;;;;6279876;22;20007;-81
2022/03/02 12:48:55;;;;;;;26.98;20.35;;;11.30;99.90;;;;;;6248370;22;20011;-84
2022/03/02 12:51:23;;;;;;;29.17;20.60;;;11.30;99.90;;;;;;6278270;22;20083;-84
2022/03/02 12:54:32;;;;;;;32.33;20.35;;;11.40;99.90;;;;;;6274643;22;20550;-84